Time;durP1;ratioP1;P1;durP2;ratioP2;P2;SDS_P1;SDS_P2;PMS_P1;PMS_P2;Temp;Humidity;BMP_temperature;BMP_pressure;BME280_temperature;BME280_humidity;BME280_pressure;Samples;Min_cycle;Max_cycle;Signal;HPM_P1;HPM_P2
2022/02/11 00:00:50;;;;;;;3.92;1.55;;;3.80;99.90;;;;;;6063507;23;20022;-86
2022/02/11 00:06:21;;;;;;;2.17;1.33;;;3.90;99.90;;;;;;6053164;23;20014;-87
2022/02/11 00:08:46;;;;;;;5.47;2.75;;;3.80;99.90;;;;;;6074069;23;20021;-86
2022/02/11 00:11:30;;;;;;;4.55;1.63;;;3.70;99.90;;;;;;6091900;23;20018;-87
2022/02/11 00:13:55;;;;;;;4.20;2.35;;;3.70;99.90;;;;;;6038759;23;20045;-86
2022/02/11 00:16:21;;;;;;;4.40;2.55;;;3.70;99.90;;;;;;6069584;23;20014;-87
2022/02/11 00:18:46;;;;;;;7.70;3.92;;;3.60;99.90;;;;;;6081050;23;20005;-86
2022/02/11 00:21:12;;;;;;;3.88;2.35;;;3.60;99.90;;;;;;6056363;23;20014;-87
2022/02/11 00:23:48;;;;;;;3.83;1.73;;;3.60;99.90;;;;;;6050057;23;20010;-87
2022/02/11 00:26:16;;;;;;;5.63;2.83;;;3.70;99.90;;;;;;6083321;23;20018;-87
2022/02/11 00:33:41;;;;;;;4.85;2.10;;;3.70;99.90;;;;;;6094744;23;20081;-87
2022/02/11 00:36:09;;;;;;;10.70;3.70;;;3.60;99.90;;;;;;6095034;23;20402;-86
2022/02/11 00:38:50;;;;;;;6.07;4.45;;;3.60;99.90;;;;;;6071163;23;20006;-87
2022/02/11 00:42:06;;;;;;;6.05;4.05;;;3.70;99.90;;;;;;6095718;23;20091;-87
2022/02/11 01:02:46;;;;;;;3.88;2.58;;;3.60;99.90;;;;;;6098389;23;20020;-86
2022/02/11 01:05:12;;;;;;;7.32;4.38;;;3.60;99.90;;;;;;6096348;23;20010;-87
2022/02/11 01:07:37;;;;;;;5.82;3.30;;;3.50;99.90;;;;;;6094421;23;20021;-87
2022/02/11 01:10:03;;;;;;;4.53;2.30;;;3.50;99.90;;;;;;6092321;23;20014;-87
2022/02/11 01:12:30;;;;;;;9.95;3.38;;;3.40;99.90;;;;;;6095212;23;20477;-87
2022/02/11 01:14:55;;;;;;;9.23;5.13;;;3.40;99.90;;;;;;6046771;23;20477;-86
2022/02/11 01:17:36;;;;;;;11.98;7.20;;;3.50;99.90;;;;;;6093311;23;20081;-87
2022/02/11 01:20:29;;;;;;;9.35;4.70;;;3.40;99.90;;;;;;6096704;23;20032;-88
2022/02/11 01:26:02;;;;;;;10.02;5.70;;;3.30;99.90;;;;;;6097221;23;20020;-87
2022/02/11 01:31:36;;;;;;;5.88;4.35;;;3.30;99.90;;;;;;6095429;23;20017;-87
2022/02/11 01:34:22;;;;;;;11.27;6.70;;;3.20;99.90;;;;;;6099288;23;20009;-87
2022/02/11 01:40:09;;;;;;;15.23;6.88;;;3.10;99.90;;;;;;6068618;23;20338;-87
2022/02/11 01:48:23;;;;;;;10.38;6.70;;;3.10;99.90;;;;;;6097440;23;20049;-87
2022/02/11 02:04:29;;;;;;;8.27;4.00;;;2.80;99.90;;;;;;6097473;23;20017;-87
2022/02/11 02:10:35;;;;;;;9.18;4.88;;;2.70;99.90;;;;;;6094214;23;20416;-87
2022/02/11 02:12:27;;;;;;;10.15;5.80;;;2.70;99.90;;;;;;6084584;23;20144;-87
2022/02/11 02:25:28;;;;;;;9.00;4.95;;;2.70;99.90;;;;;;6071092;23;20074;-86
2022/02/11 03:49:03;;;;;;;11.98;5.32;;;2.30;99.90;;;;;;6097623;23;20104;-87
2022/02/11 03:54:20;;;;;;;16.90;6.65;;;2.40;99.90;;;;;;6095427;23;20097;-87
2022/02/11 03:57:24;;;;;;;14.75;5.93;;;2.50;99.90;;;;;;6099400;23;20009;-87
2022/02/11 04:59:58;;;;;;;12.88;8.35;;;2.80;99.90;;;;;;6108987;23;20065;-89
2022/02/11 05:02:26;;;;;;;8.93;5.75;;;2.80;99.90;;;;;;6109469;23;20491;-88
2022/02/11 05:04:57;;;;;;;12.30;6.97;;;2.90;99.90;;;;;;6113408;23;20013;-89
2022/02/11 05:07:23;;;;;;;16.70;9.75;;;2.80;99.90;;;;;;6113276;23;20018;-89
2022/02/11 05:09:48;;;;;;;28.05;12.73;;;2.90;99.90;;;;;;6084803;23;20009;-89
2022/02/11 05:12:14;;;;;;;20.45;11.05;;;2.90;99.90;;;;;;6110205;23;20013;-89
2022/02/11 05:14:43;;;;;;;21.33;10.15;;;2.90;99.90;;;;;;6112716;23;20077;-88
2022/02/11 05:17:09;;;;;;;26.02;12.27;;;2.90;99.90;;;;;;6111895;23;20041;-87
2022/02/11 05:19:34;;;;;;;15.15;9.90;;;2.90;99.90;;;;;;6108585;23;20014;-88
2022/02/11 05:22:00;;;;;;;22.05;9.52;;;2.90;99.90;;;;;;6113571;23;19998;-88
2022/02/11 05:24:25;;;;;;;16.52;7.03;;;3.00;99.90;;;;;;6116684;23;20024;-88
2022/02/11 05:26:51;;;;;;;16.73;9.05;;;2.90;99.90;;;;;;6116885;23;20005;-88
2022/02/11 05:29:18;;;;;;;14.40;8.10;;;3.10;99.90;;;;;;6113989;23;20066;-88
2022/02/11 05:31:44;;;;;;;16.17;9.23;;;2.90;99.90;;;;;;6111845;23;20057;-89
2022/02/11 05:34:10;;;;;;;24.30;12.40;;;3.00;99.90;;;;;;6102741;23;20009;-88
2022/02/11 05:36:35;;;;;;;26.13;9.65;;;3.20;99.90;;;;;;6101035;23;20048;-88
2022/02/11 05:39:01;;;;;;;24.60;11.52;;;3.10;99.90;;;;;;6098945;23;20447;-88
2022/02/11 05:41:26;;;;;;;12.57;7.88;;;3.00;99.90;;;;;;6103286;23;20061;-89
2022/02/11 05:43:52;;;;;;;17.60;8.57;;;3.10;99.90;;;;;;6093190;23;20025;-88
2022/02/11 05:46:18;;;;;;;20.48;6.38;;;3.00;99.90;;;;;;6112145;23;20017;-89
2022/02/11 05:48:45;;;;;;;26.63;12.57;;;3.10;99.90;;;;;;6108925;23;20014;-88
2022/02/11 05:51:13;;;;;;;18.40;8.45;;;3.20;99.90;;;;;;6110757;23;20002;-87
2022/02/11 05:53:38;;;;;;;14.48;8.20;;;3.10;99.90;;;;;;6108595;23;20010;-88
2022/02/11 05:56:07;;;;;;;27.92;10.20;;;3.10;99.90;;;;;;6087502;23;20033;-88
2022/02/11 05:58:40;;;;;;;10.55;5.97;;;3.20;99.90;;;;;;6112456;23;20097;-89
2022/02/11 06:01:09;;;;;;;13.25;5.03;;;3.20;99.90;;;;;;6102278;23;20016;-87
2022/02/11 06:03:38;;;;;;;10.82;4.53;;;3.20;99.90;;;;;;6064788;23;20033;-88
2022/02/11 06:06:03;;;;;;;20.42;7.10;;;3.20;99.90;;;;;;6082439;23;20018;-88
2022/02/11 06:08:29;;;;;;;18.92;6.72;;;3.20;99.90;;;;;;6088228;23;20478;-88
2022/02/11 06:11:00;;;;;;;25.42;8.88;;;3.30;99.90;;;;;;6112576;23;20006;-88
2022/02/11 06:13:34;;;;;;;13.02;5.45;;;3.30;99.90;;;;;;6106274;23;20028;-89
2022/02/11 06:16:08;;;;;;;13.85;5.65;;;3.30;99.90;;;;;;6116987;23;20085;-88
2022/02/11 06:18:37;;;;;;;15.18;6.72;;;3.30;99.90;;;;;;6091791;23;20845;-88
2022/02/11 06:21:03;;;;;;;20.85;6.72;;;3.20;99.90;;;;;;6101588;23;20016;-88
2022/02/11 06:23:31;;;;;;;14.98;6.13;;;3.30;99.90;;;;;;6094922;23;19994;-88
2022/02/11 06:26:02;;;;;;;10.95;3.53;;;3.40;99.90;;;;;;6092428;23;20006;-89
2022/02/11 06:28:35;;;;;;;13.52;5.32;;;3.40;99.90;;;;;;6116525;23;20010;-89
2022/02/11 06:31:01;;;;;;;21.17;6.40;;;3.40;99.90;;;;;;6064827;23;20044;-87
2022/02/11 06:33:26;;;;;;;16.90;5.53;;;3.40;99.90;;;;;;6106447;23;20026;-89
2022/02/11 06:35:55;;;;;;;20.80;7.97;;;3.40;99.90;;;;;;6129189;23;20056;-88
2022/02/11 06:38:24;;;;;;;12.57;5.85;;;3.40;99.90;;;;;;6131217;23;20013;-88
2022/02/11 06:40:49;;;;;;;13.88;6.85;;;3.40;99.90;;;;;;6114600;23;20474;-90
2022/02/11 06:43:20;;;;;;;14.68;5.88;;;3.50;99.90;;;;;;6138332;23;20009;-88
2022/02/11 06:45:48;;;;;;;20.00;6.35;;;3.50;99.90;;;;;;6130057;23;20013;-89
2022/02/11 06:48:39;;;;;;;;;;;;;;;;;;;;;
2022/02/11 06:51:05;;;;;;;20.23;6.60;;;3.50;99.90;;;;;;6156407;23;20017;-89
2022/02/11 06:53:36;;;;;;;12.32;6.00;;;3.40;99.90;;;;;;6113454;23;20021;-89
2022/02/11 06:56:07;;;;;;;21.92;6.63;;;3.50;99.90;;;;;;6132940;23;20002;-88
2022/02/11 06:58:35;;;;;;;13.57;7.07;;;3.50;99.90;;;;;;6127949;23;20044;-89
2022/02/11 07:01:09;;;;;;;24.85;7.60;;;3.50;99.90;;;;;;6092401;23;20019;-89
2022/02/11 07:03:45;;;;;;;12.52;5.20;;;3.50;99.90;;;;;;6083949;23;20013;-90
2022/02/11 07:06:37;;;;;;;16.17;6.63;;;3.60;99.90;;;;;;6127925;23;20061;-90
2022/02/11 07:09:04;;;;;;;15.05;6.13;;;3.50;99.90;;;;;;6132211;23;20028;-90
2022/02/11 07:11:50;;;;;;;18.17;7.32;;;3.50;99.90;;;;;;6136996;23;20070;-90
2022/02/11 07:14:24;;;;;;;;;;;3.40;99.90;;;;;;6114944;23;20012;-90
2022/02/11 07:16:52;;;;;;;13.23;5.13;;;3.40;99.90;;;;;;6138458;23;19904;-90
2022/02/11 07:19:21;;;;;;;10.93;3.13;;;3.40;99.90;;;;;;6115221;23;20006;-90
2022/02/11 07:21:53;;;;;;;16.15;4.38;;;3.40;99.90;;;;;;6116955;23;20009;-90
2022/02/11 07:24:58;;;;;;;8.77;2.95;;;3.40;99.90;;;;;;5998201;23;20025;-90
2022/02/11 07:27:31;;;;;;;10.50;3.92;;;3.40;99.90;;;;;;6097173;23;20006;-90
2022/02/11 07:30:38;;;;;;;;;;;;;;;;;;;;;
2022/02/11 07:33:04;;;;;;;14.30;2.65;;;3.40;99.90;;;;;;6092411;23;21490;-90
2022/02/11 07:35:34;;;;;;;7.28;3.30;;;3.50;99.90;;;;;;6091400;23;20025;-90
2022/02/11 07:38:01;;;;;;;16.35;3.38;;;3.60;99.90;;;;;;6095548;23;20024;-90
2022/02/11 07:40:38;;;;;;;14.05;4.55;;;3.60;99.90;;;;;;6048513;23;20592;-90
2022/02/11 07:43:24;;;;;;;16.60;5.20;;;3.60;99.90;;;;;;6132375;23;20395;-90
2022/02/11 07:45:53;;;;;;;12.82;3.38;;;3.40;99.90;;;;;;6053067;23;20018;-90
2022/02/11 07:48:22;;;;;;;14.68;2.88;;;3.60;99.90;;;;;;6066901;23;20183;-89
2022/02/11 07:50:50;;;;;;;15.43;3.40;;;3.60;99.90;;;;;;6022427;23;20017;-90
2022/02/11 07:53:18;;;;;;;17.58;3.35;;;3.50;99.90;;;;;;6070713;23;20018;-90
2022/02/11 07:55:44;;;;;;;14.63;3.03;;;3.50;99.90;;;;;;6100083;23;20032;-89
2022/02/11 07:58:25;;;;;;;18.55;2.88;;;3.50;99.90;;;;;;6131074;23;20034;-90
2022/02/11 08:00:50;;;;;;;21.40;3.78;;;3.50;99.90;;;;;;6101147;23;20450;-90
2022/02/11 08:03:16;;;;;;;14.95;2.63;;;3.50;99.90;;;;;;6114785;23;20020;-90
2022/02/11 08:05:45;;;;;;;27.00;3.28;;;3.60;99.90;;;;;;6089326;23;20014;-90
2022/02/11 08:08:20;;;;;;;20.40;3.03;;;3.60;99.90;;;;;;6104380;23;20009;-89
2022/02/11 08:10:49;;;;;;;13.25;2.42;;;3.50;99.90;;;;;;6068854;23;20073;-90
2022/02/11 08:13:15;;;;;;;8.73;2.42;;;3.60;99.90;;;;;;6077744;23;20125;-90
2022/02/11 08:15:44;;;;;;;17.75;2.40;;;3.70;99.90;;;;;;6111372;23;20362;-90
2022/02/11 08:18:15;;;;;;;16.83;2.50;;;3.70;99.90;;;;;;6083584;23;20010;-90
2022/02/11 08:20:44;;;;;;;14.27;2.22;;;3.70;99.90;;;;;;6085786;23;20014;-90
2022/02/11 08:23:17;;;;;;;22.30;2.97;;;3.70;99.90;;;;;;6107125;23;20108;-90
2022/02/11 08:25:47;;;;;;;18.67;2.38;;;3.80;99.90;;;;;;6111063;23;20020;-90
2022/02/11 08:28:22;;;;;;;15.52;3.15;;;3.80;99.90;;;;;;6100503;23;20017;-90
2022/02/11 08:31:01;;;;;;;12.77;2.35;;;3.90;99.90;;;;;;6106713;23;20443;-90
2022/02/11 09:21:21;;;;;;;16.83;4.18;;;4.30;99.90;;;;;;6110348;23;20351;-88
2022/02/11 09:23:47;;;;;;;11.10;2.30;;;4.40;99.90;;;;;;6001583;23;20011;-88
2022/02/11 09:26:14;;;;;;;15.65;2.63;;;4.40;99.90;;;;;;6038400;23;20003;-88
2022/02/11 09:28:40;;;;;;;21.05;2.35;;;4.50;99.90;;;;;;6014571;23;20015;-88
2022/02/11 09:31:07;;;;;;;11.25;2.15;;;4.60;99.90;;;;;;6014193;23;20016;-88
2022/02/11 09:33:33;;;;;;;10.80;2.25;;;4.50;99.90;;;;;;6012858;23;20396;-88
2022/02/11 09:35:59;;;;;;;14.55;2.78;;;4.50;99.90;;;;;;6014078;23;20093;-88
2022/02/11 09:38:24;;;;;;;33.10;4.82;;;4.60;99.90;;;;;;6002000;23;20069;-88
2022/02/11 09:40:51;;;;;;;9.43;2.20;;;4.60;99.90;;;;;;6013625;23;20211;-88
2022/02/11 09:43:18;;;;;;;12.70;2.47;;;4.60;99.90;;;;;;6014439;23;20417;-88
2022/02/11 09:45:43;;;;;;;16.67;3.00;;;4.70;99.90;;;;;;6013370;23;20451;-88
2022/02/11 09:48:09;;;;;;;13.60;2.83;;;4.80;99.90;;;;;;6014979;23;20018;-88
2022/02/11 09:50:37;;;;;;;14.93;2.47;;;4.80;99.90;;;;;;6013463;23;20045;-88
2022/02/11 09:53:03;;;;;;;20.27;2.75;;;4.80;99.90;;;;;;6015188;23;20018;-88
2022/02/11 09:55:32;;;;;;;15.98;3.55;;;4.90;99.90;;;;;;6011068;23;20457;-88
2022/02/11 09:58:05;;;;;;;14.20;1.77;;;4.90;99.90;;;;;;6004137;23;20106;-88
2022/02/11 10:00:32;;;;;;;19.02;4.30;;;5.00;99.90;;;;;;6013672;23;20012;-88
2022/02/11 10:02:59;;;;;;;11.55;2.58;;;5.10;99.90;;;;;;6011826;23;20019;-88
2022/02/11 10:05:31;;;;;;;17.33;3.08;;;5.20;99.90;;;;;;6014013;23;20344;-88
2022/02/11 10:07:57;;;;;;;7.95;2.13;;;4.90;99.90;;;;;;6013750;23;20438;-88
2022/02/11 10:10:38;;;;;;;25.00;3.03;;;5.20;99.90;;;;;;6010399;23;20011;-88
2022/02/11 10:13:17;;;;;;;18.13;3.05;;;5.20;99.90;;;;;;6020238;23;20046;-88
2022/02/11 10:15:43;;;;;;;16.80;2.47;;;5.30;99.90;;;;;;6015989;23;20034;-88
2022/02/11 10:18:12;;;;;;;26.70;3.15;;;5.10;99.90;;;;;;6011503;23;20029;-88
2022/02/11 10:20:50;;;;;;;13.00;1.95;;;5.20;99.90;;;;;;5998475;23;20018;-89
2022/02/11 10:23:34;;;;;;;16.30;2.50;;;5.60;99.90;;;;;;6059413;23;20032;-88
2022/02/11 10:26:10;;;;;;;20.13;3.00;;;5.40;99.90;;;;;;6111586;23;20064;-88
2022/02/11 10:28:56;;;;;;;27.08;3.03;;;5.50;99.90;;;;;;6113658;23;20089;-88
2022/02/11 10:31:31;;;;;;;13.90;2.10;;;5.60;99.90;;;;;;6102025;23;20308;-88
2022/02/11 10:34:28;;;;;;;23.08;3.05;;;5.60;99.90;;;;;;6063944;23;20037;-88
2022/02/11 10:36:54;;;;;;;12.40;2.50;;;5.70;99.90;;;;;;6067304;23;20032;-88
2022/02/11 10:39:26;;;;;;;18.55;2.40;;;6.00;99.90;;;;;;6073862;23;20450;-89
2022/02/11 10:41:56;;;;;;;11.73;1.45;;;6.00;99.90;;;;;;6086923;23;20069;-88
2022/02/11 10:44:29;;;;;;;15.98;2.17;;;5.90;99.90;;;;;;6113329;23;20343;-87
2022/02/11 10:47:03;;;;;;;12.25;2.15;;;6.00;99.90;;;;;;6101838;23;20018;-88
2022/02/11 10:49:33;;;;;;;18.20;2.97;;;6.10;99.90;;;;;;6100761;23;20010;-88
2022/02/11 10:52:12;;;;;;;15.88;2.80;;;6.30;99.90;;;;;;6087182;23;20021;-88
2022/02/11 10:54:37;;;;;;;24.23;6.60;;;6.60;99.90;;;;;;6112614;23;20428;-88
2022/02/11 10:57:05;;;;;;;17.95;2.55;;;6.50;99.90;;;;;;6111405;23;20018;-88
2022/02/11 10:59:34;;;;;;;11.00;2.30;;;6.60;99.90;;;;;;6112676;23;20024;-88
2022/02/11 11:02:05;;;;;;;15.13;2.22;;;6.70;99.90;;;;;;6074284;23;20018;-88
2022/02/11 11:04:30;;;;;;;12.65;2.28;;;6.80;99.90;;;;;;6111651;23;20506;-88
2022/02/11 11:07:04;;;;;;;10.30;1.88;;;6.80;99.90;;;;;;6112527;23;20041;-87
2022/02/11 11:09:30;;;;;;;12.00;2.38;;;6.80;99.90;;;;;;6098507;23;20455;-88
2022/02/11 11:12:01;;;;;;;14.15;2.67;;;6.80;99.90;;;;;;6099352;23;20049;-88
2022/02/11 11:14:39;;;;;;;13.82;2.88;;;6.70;99.90;;;;;;6088546;23;20013;-88
2022/02/11 11:17:20;;;;;;;16.27;3.63;;;6.90;99.90;;;;;;6006645;23;20018;-88
2022/02/11 11:19:50;;;;;;;16.40;3.22;;;7.10;99.90;;;;;;6059047;23;21023;-88
2022/02/11 11:22:29;;;;;;;7.97;2.05;;;7.10;99.90;;;;;;6079414;23;20359;-89
2022/02/11 11:25:54;;;;;;;15.68;2.00;;;7.00;99.90;;;;;;6034134;23;20414;-88
2022/02/11 11:28:38;;;;;;;18.52;2.78;;;7.20;99.90;;;;;;6032605;23;20121;-89
2022/02/11 11:31:34;;;;;;;14.60;2.20;;;7.20;99.90;;;;;;6091994;23;20161;-88
2022/02/11 11:38:02;;;;;;;14.13;1.50;;;7.20;99.90;;;;;;6077256;23;20576;-88
2022/02/11 11:44:20;;;;;;;13.15;2.22;;;7.20;99.90;;;;;;5919252;23;20075;-88
2022/02/11 11:47:18;;;;;;;15.20;1.70;;;7.20;99.90;;;;;;6039305;23;20022;-89
2022/02/11 11:49:50;;;;;;;7.38;1.52;;;7.10;99.90;;;;;;5976983;23;20352;-88
2022/02/11 11:52:16;;;;;;;10.70;1.70;;;7.30;99.90;;;;;;5992401;23;25137;-89
2022/02/11 11:54:42;;;;;;;13.60;2.08;;;7.40;99.90;;;;;;5991156;23;20022;-88
2022/02/11 11:57:16;;;;;;;17.35;2.80;;;7.40;99.90;;;;;;5992417;23;20022;-88
2022/02/11 12:00:03;;;;;;;12.38;1.63;;;7.50;99.90;;;;;;6028877;23;20014;-88
2022/02/11 12:03:00;;;;;;;7.95;1.50;;;7.60;99.90;;;;;;6020090;23;20010;-88
2022/02/11 12:06:10;;;;;;;14.82;1.60;;;7.70;99.90;;;;;;5993578;23;20074;-89
2022/02/11 12:08:46;;;;;;;10.43;1.48;;;7.50;99.90;;;;;;6064171;23;20410;-89
2022/02/11 12:11:58;;;;;;;12.88;2.95;;;7.60;99.90;;;;;;6053194;23;20013;-89
2022/02/11 12:14:26;;;;;;;13.00;1.60;;;7.60;99.90;;;;;;6052167;23;20009;-89
2022/02/11 12:16:59;;;;;;;9.43;1.13;;;7.60;99.90;;;;;;6053546;23;20498;-88
2022/02/11 12:19:30;;;;;;;10.07;1.55;;;7.60;99.90;;;;;;6080574;23;20173;-88
2022/02/11 12:21:56;;;;;;;7.68;1.52;;;7.50;99.90;;;;;;6056822;23;20018;-89
2022/02/11 12:27:22;;;;;;;12.35;1.85;;;7.50;99.90;;;;;;6111379;23;20025;-88
2022/02/11 12:29:55;;;;;;;12.63;2.13;;;7.40;99.90;;;;;;6099445;23;20009;-89
2022/02/11 12:32:33;;;;;;;5.53;0.95;;;7.30;99.90;;;;;;6084756;23;20112;-89
2022/02/11 12:35:03;;;;;;;7.70;1.23;;;7.20;99.90;;;;;;6122641;23;20490;-89
2022/02/11 12:37:30;;;;;;;10.50;1.25;;;7.20;99.90;;;;;;6087057;23;20042;-88
2022/02/11 12:40:24;;;;;;;11.57;2.17;;;7.30;99.90;;;;;;6086612;23;20018;-89
2022/02/11 12:42:51;;;;;;;6.05;0.82;;;7.30;99.90;;;;;;6087061;23;20430;-89
2022/02/11 12:45:26;;;;;;;7.20;1.23;;;7.40;99.90;;;;;;6110983;23;20018;-89
2022/02/11 12:47:53;;;;;;;8.30;1.10;;;7.50;99.90;;;;;;6110748;23;20092;-89
2022/02/11 12:50:20;;;;;;;7.57;1.35;;;7.60;99.90;;;;;;6108071;23;20125;-89
2022/02/11 12:52:45;;;;;;;21.60;3.08;;;7.60;99.90;;;;;;6095122;23;20040;-89
2022/02/11 12:55:19;;;;;;;5.25;1.40;;;7.60;99.90;;;;;;6099202;23;20033;-88
2022/02/11 12:57:52;;;;;;;7.18;1.48;;;7.60;99.90;;;;;;6096313;23;20090;-89
2022/02/11 13:00:24;;;;;;;9.18;1.50;;;7.60;99.90;;;;;;6096021;23;20032;-89
2022/02/11 13:03:01;;;;;;;3.97;0.75;;;7.50;99.90;;;;;;6108246;23;20014;-89
2022/02/11 13:05:28;;;;;;;7.72;1.10;;;7.60;99.90;;;;;;6094723;23;20109;-89
2022/02/11 13:08:00;;;;;;;7.93;1.00;;;7.80;99.90;;;;;;6063171;23;20034;-89
2022/02/11 13:10:37;;;;;;;6.40;1.00;;;7.80;99.90;;;;;;6057707;23;20009;-89
2022/02/11 13:13:13;;;;;;;9.52;1.15;;;7.90;99.90;;;;;;6033126;23;20018;-89
2022/02/11 13:16:31;;;;;;;5.57;1.50;;;7.90;99.90;;;;;;6072206;23;20092;-89
2022/02/11 13:19:08;;;;;;;6.82;1.10;;;8.00;99.90;;;;;;6044900;23;20087;-89
2022/02/11 13:21:47;;;;;;;5.40;1.42;;;8.10;99.90;;;;;;6055021;23;20018;-89
2022/02/11 13:24:12;;;;;;;10.50;1.52;;;8.10;99.90;;;;;;6080596;23;20006;-89
2022/02/11 13:26:38;;;;;;;5.50;1.00;;;8.10;99.90;;;;;;6001978;23;20400;-89
2022/02/11 13:29:33;;;;;;;5.75;1.38;;;8.20;99.90;;;;;;6050812;23;20021;-89
2022/02/11 13:31:59;;;;;;;9.77;1.00;;;8.10;99.90;;;;;;6112572;23;20121;-89
2022/02/11 13:34:33;;;;;;;7.70;1.45;;;8.10;99.90;;;;;;6064903;23;20017;-89
2022/02/11 13:37:05;;;;;;;15.80;1.92;;;8.10;99.90;;;;;;6114242;23;20016;-88
2022/02/11 13:39:32;;;;;;;10.93;2.20;;;8.00;99.90;;;;;;6114678;23;20463;-89
2022/02/11 13:41:58;;;;;;;11.10;1.88;;;8.00;99.90;;;;;;6086964;23;20048;-89
2022/02/11 13:44:24;;;;;;;12.90;1.92;;;7.90;99.90;;;;;;6112404;23;20006;-89
2022/02/11 13:46:53;;;;;;;12.00;2.78;;;7.70;99.90;;;;;;6113703;23;20018;-88
2022/02/11 13:49:21;;;;;;;13.93;2.63;;;7.60;99.90;;;;;;6099411;23;20033;-88
2022/02/11 13:55:00;;;;;;;10.43;2.33;;;7.40;99.90;;;;;;6114297;23;20493;-88
2022/02/11 13:57:26;;;;;;;19.20;3.33;;;7.40;99.90;;;;;;6110515;23;20010;-89
2022/02/11 13:59:52;;;;;;;11.10;1.67;;;7.20;99.90;;;;;;6097844;23;20024;-89
2022/02/11 14:02:19;;;;;;;13.68;2.40;;;7.20;99.90;;;;;;6074077;23;20101;-89
2022/02/11 14:05:19;;;;;;;14.18;2.05;;;7.10;99.90;;;;;;6120089;23;20395;-89
2022/02/11 14:07:54;;;;;;;17.55;2.15;;;7.10;99.90;;;;;;6088548;23;20010;-89
2022/02/11 14:10:22;;;;;;;13.60;3.65;;;7.20;99.90;;;;;;6112073;23;20033;-89
2022/02/11 14:12:47;;;;;;;12.20;1.98;;;7.10;99.90;;;;;;6090511;23;20112;-89
2022/02/11 14:15:20;;;;;;;15.50;1.60;;;7.10;99.90;;;;;;6113887;23;20014;-90
2022/02/11 14:17:46;;;;;;;8.10;1.67;;;7.10;99.90;;;;;;6089800;23;20090;-89
2022/02/11 14:20:12;;;;;;;8.25;1.15;;;7.20;99.90;;;;;;6113012;23;20006;-90
2022/02/11 14:22:39;;;;;;;8.75;1.65;;;7.20;99.90;;;;;;6088501;23;20466;-89
2022/02/11 14:25:06;;;;;;;11.50;2.45;;;7.20;99.90;;;;;;6111782;23;20020;-89
2022/02/11 14:27:35;;;;;;;8.52;1.52;;;7.10;99.90;;;;;;6112059;23;20037;-89
2022/02/11 14:30:01;;;;;;;12.98;1.35;;;7.10;99.90;;;;;;6113074;23;20022;-89
2022/02/11 14:35:27;;;;;;;10.38;1.50;;;7.00;99.90;;;;;;6170417;23;20036;-90
2022/02/11 14:37:53;;;;;;;9.98;1.58;;;6.80;99.90;;;;;;6122264;23;20028;-89
2022/02/11 14:40:18;;;;;;;8.80;1.67;;;6.80;99.90;;;;;;6125921;23;20231;-90
2022/02/11 14:42:47;;;;;;;10.35;1.42;;;6.80;99.90;;;;;;6110626;23;20013;-90
2022/02/11 14:45:12;;;;;;;10.10;1.52;;;6.70;99.90;;;;;;6129207;23;20013;-90
2022/02/11 14:47:38;;;;;;;10.98;1.45;;;6.60;99.90;;;;;;6107276;23;20020;-90
2022/02/11 14:50:06;;;;;;;7.93;1.80;;;6.60;99.90;;;;;;6129379;23;20024;-90
2022/02/11 14:52:32;;;;;;;10.68;1.85;;;6.80;99.90;;;;;;6151792;23;20110;-88
2022/02/11 14:54:58;;;;;;;14.57;2.65;;;6.70;99.90;;;;;;6148035;23;20036;-88
2022/02/11 14:57:24;;;;;;;14.07;1.83;;;6.60;99.90;;;;;;6120916;23;20284;-87
2022/02/11 14:59:53;;;;;;;6.28;1.42;;;6.60;99.90;;;;;;6124422;23;20045;-87
2022/02/11 15:02:19;;;;;;;12.23;1.42;;;6.60;99.90;;;;;;6147368;23;20013;-87
2022/02/11 15:04:46;;;;;;;10.52;1.38;;;6.50;99.90;;;;;;6121991;23;20009;-89
2022/02/11 15:07:27;;;;;;;4.75;1.35;;;6.80;99.90;;;;;;6103318;23;20101;-90
2022/02/11 15:09:52;;;;;;;14.02;1.00;;;6.60;99.90;;;;;;6112100;23;20013;-90
2022/02/11 15:12:18;;;;;;;7.32;1.40;;;6.70;99.90;;;;;;6119964;23;20013;-90
2022/02/11 15:14:45;;;;;;;8.85;1.95;;;6.50;99.90;;;;;;6123991;23;20013;-87
2022/02/11 15:17:11;;;;;;;6.20;1.30;;;6.50;99.90;;;;;;6124327;23;20148;-88
2022/02/11 15:19:38;;;;;;;13.23;1.92;;;6.50;99.90;;;;;;6110308;23;20088;-88
2022/02/11 15:22:13;;;;;;;4.07;0.82;;;6.60;99.90;;;;;;6099746;23;20291;-87
2022/02/11 15:24:40;;;;;;;10.57;1.23;;;6.90;99.90;;;;;;6123190;23;20036;-87
2022/02/11 15:27:09;;;;;;;5.85;1.20;;;6.80;99.90;;;;;;6123965;23;20020;-88
2022/02/11 15:29:34;;;;;;;11.95;1.35;;;6.80;99.90;;;;;;6130668;23;20457;-88
2022/02/11 15:32:12;;;;;;;11.52;1.23;;;6.80;99.90;;;;;;6117360;23;20013;-88
2022/02/11 15:34:38;;;;;;;7.72;1.20;;;6.90;99.90;;;;;;6117382;23;20064;-88
2022/02/11 15:37:05;;;;;;;7.93;1.42;;;6.60;99.90;;;;;;6118129;23;20013;-88
2022/02/11 15:39:30;;;;;;;4.60;1.08;;;6.80;99.90;;;;;;6118168;23;20014;-87
2022/02/11 15:41:57;;;;;;;6.70;0.95;;;6.80;99.90;;;;;;6103120;23;20096;-87
2022/02/11 15:44:22;;;;;;;4.88;1.00;;;6.90;99.90;;;;;;6117103;23;20006;-89
2022/02/11 15:46:48;;;;;;;4.90;1.02;;;6.90;99.90;;;;;;6117227;23;20469;-89
2022/02/11 15:49:14;;;;;;;6.78;1.02;;;6.70;99.90;;;;;;6118097;23;20231;-89
2022/02/11 15:51:39;;;;;;;4.75;0.90;;;6.40;99.90;;;;;;6113887;23;20045;-89
2022/02/11 15:54:05;;;;;;;5.43;0.90;;;6.50;99.90;;;;;;6076306;23;20398;-89
2022/02/11 15:56:31;;;;;;;7.47;1.55;;;6.50;99.90;;;;;;6092682;23;20324;-89
2022/02/11 15:59:00;;;;;;;8.35;1.77;;;6.30;99.90;;;;;;6117512;23;20040;-89
2022/02/11 16:01:26;;;;;;;6.22;1.50;;;6.00;99.90;;;;;;6116551;23;20014;-89
2022/02/11 16:03:55;;;;;;;7.95;1.10;;;5.80;99.90;;;;;;6117538;23;20080;-89
2022/02/11 16:06:21;;;;;;;6.50;1.23;;;5.90;99.90;;;;;;6116287;23;20014;-89
2022/02/11 16:08:46;;;;;;;6.18;0.88;;;5.80;99.90;;;;;;6118267;23;20016;-89
2022/02/11 16:11:12;;;;;;;4.93;0.90;;;5.80;99.90;;;;;;6116754;23;20002;-89
2022/02/11 16:13:38;;;;;;;6.10;1.30;;;5.90;99.90;;;;;;6117207;23;20009;-89
2022/02/11 16:16:05;;;;;;;6.68;1.63;;;5.60;99.90;;;;;;6117833;23;20106;-89
2022/02/11 16:18:32;;;;;;;7.85;1.33;;;5.60;99.90;;;;;;6119861;23;20045;-89
2022/02/11 16:21:06;;;;;;;7.22;1.52;;;5.70;99.90;;;;;;6115239;23;20033;-89
2022/02/11 16:23:40;;;;;;;3.33;0.88;;;5.70;99.90;;;;;;6119073;23;20069;-89
2022/02/11 16:26:06;;;;;;;4.60;1.05;;;5.60;99.90;;;;;;6123593;23;20341;-89
2022/02/11 16:28:32;;;;;;;6.50;1.27;;;5.50;99.90;;;;;;6117460;23;20009;-86
2022/02/11 16:31:13;;;;;;;4.38;1.38;;;5.50;99.90;;;;;;6119828;23;20020;-87
2022/02/11 16:36:42;;;;;;;4.18;0.85;;;5.50;99.90;;;;;;6138842;23;20016;-87
2022/02/11 16:39:09;;;;;;;6.85;0.88;;;5.50;99.90;;;;;;6106653;23;20017;-87
2022/02/11 16:41:34;;;;;;;5.70;1.02;;;5.50;99.90;;;;;;6119003;23;20037;-87
2022/02/11 16:44:00;;;;;;;8.07;1.15;;;5.50;99.90;;;;;;6117617;23;20013;-87
2022/02/11 16:46:25;;;;;;;5.10;1.40;;;5.40;99.90;;;;;;6104552;23;20067;-87
2022/02/11 16:48:51;;;;;;;3.95;1.13;;;5.20;99.90;;;;;;6104511;23;20064;-87
2022/02/11 16:55:31;;;;;;;7.90;1.70;;;5.20;99.90;;;;;;5974134;23;20098;-86
2022/02/11 16:57:59;;;;;;;8.05;1.60;;;5.00;99.90;;;;;;6097122;23;20084;-87
2022/02/11 17:04:05;;;;;;;9.95;2.00;;;4.50;99.90;;;;;;6144919;23;20060;-86
2022/02/11 17:06:33;;;;;;;6.40;1.73;;;4.50;99.90;;;;;;6088389;23;20005;-86
2022/02/11 17:09:01;;;;;;;11.32;2.35;;;4.70;99.90;;;;;;6083177;23;20525;-87
2022/02/11 17:11:44;;;;;;;14.63;1.95;;;4.60;99.90;;;;;;6083412;23;20017;-87
2022/02/11 17:14:11;;;;;;;13.75;1.85;;;4.50;99.90;;;;;;6117498;23;20363;-87
2022/02/11 17:16:51;;;;;;;11.00;1.88;;;4.50;99.90;;;;;;6093120;23;20402;-86
2022/02/11 17:19:46;;;;;;;18.55;4.28;;;4.50;99.90;;;;;;6089332;23;20360;-86
2022/02/11 17:22:11;;;;;;;13.95;2.55;;;4.50;99.90;;;;;;6129630;23;20093;-87
2022/02/11 17:24:37;;;;;;;12.10;2.85;;;4.50;99.90;;;;;;6102724;23;20104;-87
2022/02/11 17:27:06;;;;;;;7.45;2.00;;;4.40;99.90;;;;;;6071794;23;20044;-86
2022/02/11 17:29:38;;;;;;;9.40;1.63;;;4.20;99.90;;;;;;6120115;23;20016;-86
2022/02/11 17:32:12;;;;;;;7.00;1.73;;;4.10;99.90;;;;;;6073383;23;20023;-86
2022/02/11 17:35:01;;;;;;;8.68;1.85;;;4.10;99.90;;;;;;6117371;23;20036;-86
2022/02/11 17:37:27;;;;;;;9.93;1.85;;;4.20;99.90;;;;;;6106855;23;20009;-86
2022/02/11 17:40:13;;;;;;;9.00;1.80;;;4.40;99.90;;;;;;6092122;23;20557;-86
2022/02/11 17:42:51;;;;;;;8.07;1.73;;;4.30;99.90;;;;;;6076994;23;20092;-86
2022/02/11 17:45:17;;;;;;;11.45;1.83;;;4.20;99.90;;;;;;6100724;23;20001;-86
2022/02/11 17:47:45;;;;;;;8.63;1.42;;;4.00;99.90;;;;;;6069047;23;20006;-86
2022/02/11 17:50:12;;;;;;;8.90;1.67;;;3.90;99.90;;;;;;6063361;23;20020;-86
2022/02/11 17:52:38;;;;;;;11.07;2.60;;;3.80;99.90;;;;;;6089090;23;20394;-86
2022/02/11 17:55:12;;;;;;;4.82;1.42;;;3.90;99.90;;;;;;6093926;23;20014;-86
2022/02/11 17:57:47;;;;;;;6.97;1.83;;;4.00;99.90;;;;;;6108727;23;20095;-86
2022/02/11 18:00:44;;;;;;;7.80;2.03;;;4.00;99.90;;;;;;6072006;23;20024;-86
2022/02/11 18:03:29;;;;;;;12.90;2.38;;;4.20;99.90;;;;;;6092655;23;20334;-84